sensor_id;sensor_type;location;lat;lon;timestamp;temperature;humidity
68378;DHT22;55322;48.146;11.516;2023-05-20T00:01:20;11.64;92.31
68378;DHT22;55322;48.146;11.516;2023-05-20T00:03:45;11.60;92.85
68378;DHT22;55322;48.146;11.516;2023-05-20T00:06:10;11.57;92.86
68378;DHT22;55322;48.146;11.516;2023-05-20T00:08:36;11.55;92.63
68378;DHT22;55322;48.146;11.516;2023-05-20T00:11:01;11.55;93.04
68378;DHT22;55322;48.146;11.516;2023-05-20T00:13:27;11.55;92.82
68378;DHT22;55322;48.146;11.516;2023-05-20T00:15:52;11.54;92.82
68378;DHT22;55322;48.146;11.516;2023-05-20T00:18:17;11.53;92.96
68378;DHT22;55322;48.146;11.516;2023-05-20T00:20:43;11.58;93.13
68378;DHT22;55322;48.146;11.516;2023-05-20T00:23:08;11.53;93.53
68378;DHT22;55322;48.146;11.516;2023-05-20T00:25:34;11.54;93.36
68378;DHT22;55322;48.146;11.516;2023-05-20T00:27:59;11.54;93.87
68378;DHT22;55322;48.146;11.516;2023-05-20T00:30:25;11.67;92.77
68378;DHT22;55322;48.146;11.516;2023-05-20T00:32:50;11.70;92.63
68378;DHT22;55322;48.146;11.516;2023-05-20T00:35:15;11.74;91.74
68378;DHT22;55322;48.146;11.516;2023-05-20T00:37:41;11.74;92.29
68378;DHT22;55322;48.146;11.516;2023-05-20T00:40:07;11.68;92.20
68378;DHT22;55322;48.146;11.516;2023-05-20T00:42:32;11.74;91.83
68378;DHT22;55322;48.146;11.516;2023-05-20T00:44:58;11.73;92.40
68378;DHT22;55322;48.146;11.516;2023-05-20T00:47:30;11.74;91.66
68378;DHT22;55322;48.146;11.516;2023-05-20T00:49:56;11.73;92.37
68378;DHT22;55322;48.146;11.516;2023-05-20T00:52:21;11.77;92.63
68378;DHT22;55322;48.146;11.516;2023-05-20T00:54:48;11.78;92.83
68378;DHT22;55322;48.146;11.516;2023-05-20T00:57:14;11.75;92.17
68378;DHT22;55322;48.146;11.516;2023-05-20T00:59:39;11.74;92.45
68378;DHT22;55322;48.146;11.516;2023-05-20T01:02:05;11.77;91.04
68378;DHT22;55322;48.146;11.516;2023-05-20T01:04:31;11.78;91.04
68378;DHT22;55322;48.146;11.516;2023-05-20T01:06:58;11.75;92.07
68378;DHT22;55322;48.146;11.516;2023-05-20T01:09:25;11.77;92.12
68378;DHT22;55322;48.146;11.516;2023-05-20T01:11:57;11.74;92.12
68378;DHT22;55322;48.146;11.516;2023-05-20T01:14:26;11.75;91.65
68378;DHT22;55322;48.146;11.516;2023-05-20T01:16:54;11.74;91.64
68378;DHT22;55322;48.146;11.516;2023-05-20T01:19:30;11.70;92.31
68378;DHT22;55322;48.146;11.516;2023-05-20T01:22:00;11.73;92.44
68378;DHT22;55322;48.146;11.516;2023-05-20T01:24:27;11.70;92.70
68378;DHT22;55322;48.146;11.516;2023-05-20T01:26:52;11.67;92.36
68378;DHT22;55322;48.146;11.516;2023-05-20T01:29:18;11.67;92.44
68378;DHT22;55322;48.146;11.516;2023-05-20T01:31:45;11.67;92.43
68378;DHT22;55322;48.146;11.516;2023-05-20T01:34:11;11.63;92.97
68378;DHT22;55322;48.146;11.516;2023-05-20T01:36:38;11.64;93.02
68378;DHT22;55322;48.146;11.516;2023-05-20T01:39:04;11.64;93.09
68378;DHT22;55322;48.146;11.516;2023-05-20T01:41:31;11.63;92.44
68378;DHT22;55322;48.146;11.516;2023-05-20T01:43:59;11.64;92.43
68378;DHT22;55322;48.146;11.516;2023-05-20T01:46:24;11.63;92.12
68378;DHT22;55322;48.146;11.516;2023-05-20T01:48:50;11.63;92.57
68378;DHT22;55322;48.146;11.516;2023-05-20T01:51:15;11.63;93.07
68378;DHT22;55322;48.146;11.516;2023-05-20T01:53:42;11.63;92.84
68378;DHT22;55322;48.146;11.516;2023-05-20T01:56:07;11.61;92.93
68378;DHT22;55322;48.146;11.516;2023-05-20T01:58:32;11.58;92.96
68378;DHT22;55322;48.146;11.516;2023-05-20T02:00:57;11.58;93.39
68378;DHT22;55322;48.146;11.516;2023-05-20T02:03:24;11.61;92.57
68378;DHT22;55322;48.146;11.516;2023-05-20T02:05:49;11.61;92.70
68378;DHT22;55322;48.146;11.516;2023-05-20T02:08:15;11.57;92.71
68378;DHT22;55322;48.146;11.516;2023-05-20T02:10:40;11.54;92.74
68378;DHT22;55322;48.146;11.516;2023-05-20T02:13:05;11.55;92.73
68378;DHT22;55322;48.146;11.516;2023-05-20T02:15:31;11.53;92.41
68378;DHT22;55322;48.146;11.516;2023-05-20T02:17:56;11.55;92.01
68378;DHT22;55322;48.146;11.516;2023-05-20T02:20:22;11.54;92.55
68378;DHT22;55322;48.146;11.516;2023-05-20T02:22:47;11.51;92.89
68378;DHT22;55322;48.146;11.516;2023-05-20T02:25:12;11.50;93.15
68378;DHT22;55322;48.146;11.516;2023-05-20T02:27:38;11.58;92.03
68378;DHT22;55322;48.146;11.516;2023-05-20T02:30:05;11.55;92.52
68378;DHT22;55322;48.146;11.516;2023-05-20T02:32:31;11.51;93.22
68378;DHT22;55322;48.146;11.516;2023-05-20T02:34:57;11.50;93.62
68378;DHT22;55322;48.146;11.516;2023-05-20T02:37:23;11.51;93.67
68378;DHT22;55322;48.146;11.516;2023-05-20T02:39:48;11.48;93.54
68378;DHT22;55322;48.146;11.516;2023-05-20T02:42:14;11.47;93.81
68378;DHT22;55322;48.146;11.516;2023-05-20T02:44:39;11.48;93.65
68378;DHT22;55322;48.146;11.516;2023-05-20T02:47:05;11.48;93.75
68378;DHT22;55322;48.146;11.516;2023-05-20T02:49:30;11.43;94.10
68378;DHT22;55322;48.146;11.516;2023-05-20T02:51:56;11.43;94.23
68378;DHT22;55322;48.146;11.516;2023-05-20T02:54:21;11.45;94.16
68378;DHT22;55322;48.146;11.516;2023-05-20T02:56:46;11.44;93.82
68378;DHT22;55322;48.146;11.516;2023-05-20T02:59:12;11.47;94.24
68378;DHT22;55322;48.146;11.516;2023-05-20T03:01:37;11.45;93.98
68378;DHT22;55322;48.146;11.516;2023-05-20T03:04:04;11.47;94.26
68378;DHT22;55322;48.146;11.516;2023-05-20T03:06:30;11.47;94.16
68378;DHT22;55322;48.146;11.516;2023-05-20T03:08:56;11.47;93.53
68378;DHT22;55322;48.146;11.516;2023-05-20T03:11:22;11.43;93.63
68378;DHT22;55322;48.146;11.516;2023-05-20T03:13:47;11.44;93.71
68378;DHT22;55322;48.146;11.516;2023-05-20T03:16:12;11.47;93.76
68378;DHT22;55322;48.146;11.516;2023-05-20T03:18:38;11.44;94.27
68378;DHT22;55322;48.146;11.516;2023-05-20T03:21:03;11.37;94.29
68378;DHT22;55322;48.146;11.516;2023-05-20T03:23:28;11.35;94.12
68378;DHT22;55322;48.146;11.516;2023-05-20T03:25:54;11.37;94.42
68378;DHT22;55322;48.146;11.516;2023-05-20T03:28:19;11.40;94.71
68378;DHT22;55322;48.146;11.516;2023-05-20T03:30:44;11.37;94.21
68378;DHT22;55322;48.146;11.516;2023-05-20T03:33:10;11.38;94.74
68378;DHT22;55322;48.146;11.516;2023-05-20T03:35:36;11.34;94.94
68378;DHT22;55322;48.146;11.516;2023-05-20T03:38:01;11.38;94.56
68378;DHT22;55322;48.146;11.516;2023-05-20T03:40:26;11.33;94.96
68378;DHT22;55322;48.146;11.516;2023-05-20T03:42:52;11.33;95.31
68378;DHT22;55322;48.146;11.516;2023-05-20T03:45:17;11.35;95.37
68378;DHT22;55322;48.146;11.516;2023-05-20T03:47:42;11.33;95.33
68378;DHT22;55322;48.146;11.516;2023-05-20T03:50:08;11.37;95.26
68378;DHT22;55322;48.146;11.516;2023-05-20T03:52:34;11.34;95.62
68378;DHT22;55322;48.146;11.516;2023-05-20T03:54:59;11.31;95.23
68378;DHT22;55322;48.146;11.516;2023-05-20T03:57:24;11.33;95.19
68378;DHT22;55322;48.146;11.516;2023-05-20T03:59:50;11.30;95.38
68378;DHT22;55322;48.146;11.516;2023-05-20T04:02:15;11.30;95.35
68378;DHT22;55322;48.146;11.516;2023-05-20T04:04:41;11.28;95.33
68378;DHT22;55322;48.146;11.516;2023-05-20T04:07:07;11.28;95.37
68378;DHT22;55322;48.146;11.516;2023-05-20T04:09:33;11.28;95.16
68378;DHT22;55322;48.146;11.516;2023-05-20T04:11:58;11.31;95.09
68378;DHT22;55322;48.146;11.516;2023-05-20T04:14:23;11.28;95.32
68378;DHT22;55322;48.146;11.516;2023-05-20T04:16:49;11.28;95.23
68378;DHT22;55322;48.146;11.516;2023-05-20T04:19:15;11.33;95.22
68378;DHT22;55322;48.146;11.516;2023-05-20T04:21:43;11.26;95.09
68378;DHT22;55322;48.146;11.516;2023-05-20T04:24:08;11.27;95.00
68378;DHT22;55322;48.146;11.516;2023-05-20T04:26:34;11.24;95.32
68378;DHT22;55322;48.146;11.516;2023-05-20T04:29:01;11.26;95.27
68378;DHT22;55322;48.146;11.516;2023-05-20T04:31:28;11.24;95.05
68378;DHT22;55322;48.146;11.516;2023-05-20T04:33:53;11.20;95.04
68378;DHT22;55322;48.146;11.516;2023-05-20T04:36:19;11.26;95.27
68378;DHT22;55322;48.146;11.516;2023-05-20T04:38:44;11.24;95.16
68378;DHT22;55322;48.146;11.516;2023-05-20T04:41:11;11.27;95.44
68378;DHT22;55322;48.146;11.516;2023-05-20T04:43:36;11.33;95.15
68378;DHT22;55322;48.146;11.516;2023-05-20T04:46:04;11.31;95.18
68378;DHT22;55322;48.146;11.516;2023-05-20T04:48:30;11.31;95.17
68378;DHT22;55322;48.146;11.516;2023-05-20T04:50:56;11.38;95.10
68378;DHT22;55322;48.146;11.516;2023-05-20T04:53:21;11.37;95.45
68378;DHT22;55322;48.146;11.516;2023-05-20T04:55:47;11.37;95.56
68378;DHT22;55322;48.146;11.516;2023-05-20T04:58:14;11.37;95.32
68378;DHT22;55322;48.146;11.516;2023-05-20T05:00:41;11.43;95.33
68378;DHT22;55322;48.146;11.516;2023-05-20T05:03:07;11.43;95.08
68378;DHT22;55322;48.146;11.516;2023-05-20T05:05:36;11.51;95.17
68378;DHT22;55322;48.146;11.516;2023-05-20T05:08:03;11.45;95.22
68378;DHT22;55322;48.146;11.516;2023-05-20T05:10:28;11.43;95.30
68378;DHT22;55322;48.146;11.516;2023-05-20T05:12:54;11.43;95.31
68378;DHT22;55322;48.146;11.516;2023-05-20T05:15:19;11.43;95.38
68378;DHT22;55322;48.146;11.516;2023-05-20T05:17:44;11.50;95.04
68378;DHT22;55322;48.146;11.516;2023-05-20T05:20:10;11.50;95.57
68378;DHT22;55322;48.146;11.516;2023-05-20T05:22:35;11.50;95.46
68378;DHT22;55322;48.146;11.516;2023-05-20T05:25:02;11.50;95.05
68378;DHT22;55322;48.146;11.516;2023-05-20T05:27:27;11.53;95.32
68378;DHT22;55322;48.146;11.516;2023-05-20T05:29:53;11.64;94.97
68378;DHT22;55322;48.146;11.516;2023-05-20T05:32:18;11.58;94.86
68378;DHT22;55322;48.146;11.516;2023-05-20T05:34:43;11.60;94.70
68378;DHT22;55322;48.146;11.516;2023-05-20T05:37:09;11.38;94.45
68378;DHT22;55322;48.146;11.516;2023-05-20T05:39:34;11.41;94.50
68378;DHT22;55322;48.146;11.516;2023-05-20T05:42:02;11.40;94.52
68378;DHT22;55322;48.146;11.516;2023-05-20T05:44:27;11.41;94.93
68378;DHT22;55322;48.146;11.516;2023-05-20T05:46:53;11.43;95.27
68378;DHT22;55322;48.146;11.516;2023-05-20T05:49:18;11.54;95.40
68378;DHT22;55322;48.146;11.516;2023-05-20T05:51:43;11.54;94.92
68378;DHT22;55322;48.146;11.516;2023-05-20T05:54:09;11.60;95.05
68378;DHT22;55322;48.146;11.516;2023-05-20T05:56:34;11.61;95.07
68378;DHT22;55322;48.146;11.516;2023-05-20T05:58:59;11.64;94.82
68378;DHT22;55322;48.146;11.516;2023-05-20T06:01:25;11.63;94.65
68378;DHT22;55322;48.146;11.516;2023-05-20T06:03:50;11.65;94.66
68378;DHT22;55322;48.146;11.516;2023-05-20T06:06:15;11.70;94.21
68378;DHT22;55322;48.146;11.516;2023-05-20T06:08:41;11.63;94.04
68378;DHT22;55322;48.146;11.516;2023-05-20T06:11:06;11.63;94.23
68378;DHT22;55322;48.146;11.516;2023-05-20T06:13:31;11.74;93.90
68378;DHT22;55322;48.146;11.516;2023-05-20T06:15:57;11.75;94.48
68378;DHT22;55322;48.146;11.516;2023-05-20T06:18:22;11.74;94.02
68378;DHT22;55322;48.146;11.516;2023-05-20T06:20:54;11.78;93.68
68378;DHT22;55322;48.146;11.516;2023-05-20T06:23:19;11.71;93.68
68378;DHT22;55322;48.146;11.516;2023-05-20T06:25:45;11.78;93.59
68378;DHT22;55322;48.146;11.516;2023-05-20T06:28:10;11.85;94.03
68378;DHT22;55322;48.146;11.516;2023-05-20T06:30:36;11.95;92.93
68378;DHT22;55322;48.146;11.516;2023-05-20T06:33:02;12.02;93.20
68378;DHT22;55322;48.146;11.516;2023-05-20T06:35:27;12.08;92.90
68378;DHT22;55322;48.146;11.516;2023-05-20T06:37:52;12.21;92.33
68378;DHT22;55322;48.146;11.516;2023-05-20T06:40:19;12.36;91.95
68378;DHT22;55322;48.146;11.516;2023-05-20T06:42:45;12.39;91.34
68378;DHT22;55322;48.146;11.516;2023-05-20T06:45:10;12.40;91.38
68378;DHT22;55322;48.146;11.516;2023-05-20T06:47:35;12.39;91.81
68378;DHT22;55322;48.146;11.516;2023-05-20T06:50:01;12.32;91.06
68378;DHT22;55322;48.146;11.516;2023-05-20T06:52:27;12.33;92.05
68378;DHT22;55322;48.146;11.516;2023-05-20T06:54:52;12.40;91.56
68378;DHT22;55322;48.146;11.516;2023-05-20T06:57:17;12.50;91.90
68378;DHT22;55322;48.146;11.516;2023-05-20T06:59:43;12.45;91.69
68378;DHT22;55322;48.146;11.516;2023-05-20T07:02:08;12.59;91.02
68378;DHT22;55322;48.146;11.516;2023-05-20T07:04:33;12.64;90.45
68378;DHT22;55322;48.146;11.516;2023-05-20T07:06:59;12.70;90.84
68378;DHT22;55322;48.146;11.516;2023-05-20T07:09:24;12.76;89.72
68378;DHT22;55322;48.146;11.516;2023-05-20T07:11:49;12.97;89.35
68378;DHT22;55322;48.146;11.516;2023-05-20T07:14:15;13.13;88.61
68378;DHT22;55322;48.146;11.516;2023-05-20T07:16:40;13.21;89.07
68378;DHT22;55322;48.146;11.516;2023-05-20T07:19:05;13.18;86.36
68378;DHT22;55322;48.146;11.516;2023-05-20T07:21:31;13.07;86.17
68378;DHT22;55322;48.146;11.516;2023-05-20T07:23:56;13.04;86.90
68378;DHT22;55322;48.146;11.516;2023-05-20T07:26:21;13.44;85.58
68378;DHT22;55322;48.146;11.516;2023-05-20T07:28:47;13.37;87.32
68378;DHT22;55322;48.146;11.516;2023-05-20T07:31:12;13.41;85.17
68378;DHT22;55322;48.146;11.516;2023-05-20T07:33:38;13.35;86.28
68378;DHT22;55322;48.146;11.516;2023-05-20T07:36:04;13.37;86.60
68378;DHT22;55322;48.146;11.516;2023-05-20T07:38:29;13.14;87.26
68378;DHT22;55322;48.146;11.516;2023-05-20T07:40:55;13.15;87.17
68378;DHT22;55322;48.146;11.516;2023-05-20T07:43:20;13.18;85.58
68378;DHT22;55322;48.146;11.516;2023-05-20T07:45:45;13.14;85.99
68378;DHT22;55322;48.146;11.516;2023-05-20T07:48:11;13.11;86.98
68378;DHT22;55322;48.146;11.516;2023-05-20T07:50:37;13.24;87.66
68378;DHT22;55322;48.146;11.516;2023-05-20T07:53:03;13.31;87.50
68378;DHT22;55322;48.146;11.516;2023-05-20T07:55:29;13.50;87.48
68378;DHT22;55322;48.146;11.516;2023-05-20T07:57:55;13.58;86.14
68378;DHT22;55322;48.146;11.516;2023-05-20T08:00:20;13.35;86.82
68378;DHT22;55322;48.146;11.516;2023-05-20T08:02:45;13.33;86.42
68378;DHT22;55322;48.146;11.516;2023-05-20T08:05:11;13.61;86.30
68378;DHT22;55322;48.146;11.516;2023-05-20T08:07:36;13.78;86.69
68378;DHT22;55322;48.146;11.516;2023-05-20T08:10:02;14.39;84.61
68378;DHT22;55322;48.146;11.516;2023-05-20T08:12:27;15.01;80.82
68378;DHT22;55322;48.146;11.516;2023-05-20T08:14:53;15.49;80.92
68378;DHT22;55322;48.146;11.516;2023-05-20T08:17:18;15.66;80.87
68378;DHT22;55322;48.146;11.516;2023-05-20T08:19:43;15.61;79.87
68378;DHT22;55322;48.146;11.516;2023-05-20T08:22:09;16.02;78.54
68378;DHT22;55322;48.146;11.516;2023-05-20T08:24:34;16.30;77.05
68378;DHT22;55322;48.146;11.516;2023-05-20T08:26:59;15.72;77.60
68378;DHT22;55322;48.146;11.516;2023-05-20T08:29:25;15.75;76.84
68378;DHT22;55322;48.146;11.516;2023-05-20T08:31:51;16.43;74.71
68378;DHT22;55322;48.146;11.516;2023-05-20T08:34:16;16.17;74.66
68378;DHT22;55322;48.146;11.516;2023-05-20T08:36:41;16.08;73.88
68378;DHT22;55322;48.146;11.516;2023-05-20T08:39:09;16.54;71.87
68378;DHT22;55322;48.146;11.516;2023-05-20T08:41:36;17.21;74.37
68378;DHT22;55322;48.146;11.516;2023-05-20T08:44:02;16.98;74.42
68378;DHT22;55322;48.146;11.516;2023-05-20T08:46:30;17.25;70.49
68378;DHT22;55322;48.146;11.516;2023-05-20T08:48:56;17.32;72.42
68378;DHT22;55322;48.146;11.516;2023-05-20T08:51:25;17.18;73.90
68378;DHT22;55322;48.146;11.516;2023-05-20T08:53:51;16.87;74.88
68378;DHT22;55322;48.146;11.516;2023-05-20T08:56:16;16.75;74.90
68378;DHT22;55322;48.146;11.516;2023-05-20T08:58:42;16.88;75.70
68378;DHT22;55322;48.146;11.516;2023-05-20T09:01:07;16.80;73.97
68378;DHT22;55322;48.146;11.516;2023-05-20T09:03:33;17.04;74.34
68378;DHT22;55322;48.146;11.516;2023-05-20T09:06:03;17.05;74.49
68378;DHT22;55322;48.146;11.516;2023-05-20T09:08:29;17.39;75.67
68378;DHT22;55322;48.146;11.516;2023-05-20T09:10:55;17.55;74.14
68378;DHT22;55322;48.146;11.516;2023-05-20T09:13:20;17.63;72.65
68378;DHT22;55322;48.146;11.516;2023-05-20T09:15:45;17.93;70.96
68378;DHT22;55322;48.146;11.516;2023-05-20T09:18:11;18.38;70.06
68378;DHT22;55322;48.146;11.516;2023-05-20T09:20:37;18.69;67.04
68378;DHT22;55322;48.146;11.516;2023-05-20T09:23:04;18.72;65.79
68378;DHT22;55322;48.146;11.516;2023-05-20T09:25:30;18.09;69.47
68378;DHT22;55322;48.146;11.516;2023-05-20T09:27:56;18.58;68.29
68378;DHT22;55322;48.146;11.516;2023-05-20T09:30:22;18.30;70.67
68378;DHT22;55322;48.146;11.516;2023-05-20T09:32:54;18.04;70.40
68378;DHT22;55322;48.146;11.516;2023-05-20T09:35:24;18.40;68.21
68378;DHT22;55322;48.146;11.516;2023-05-20T09:37:54;18.26;72.54
68378;DHT22;55322;48.146;11.516;2023-05-20T09:40:29;18.68;70.17
68378;DHT22;55322;48.146;11.516;2023-05-20T09:43:02;18.50;69.64
68378;DHT22;55322;48.146;11.516;2023-05-20T09:45:28;18.57;68.97
68378;DHT22;55322;48.146;11.516;2023-05-20T09:47:55;18.74;66.12
68378;DHT22;55322;48.146;11.516;2023-05-20T09:50:22;18.43;70.68
68378;DHT22;55322;48.146;11.516;2023-05-20T09:52:52;18.33;70.68
68378;DHT22;55322;48.146;11.516;2023-05-20T09:55:18;18.45;68.84
68378;DHT22;55322;48.146;11.516;2023-05-20T09:57:45;18.44;71.48
68378;DHT22;55322;48.146;11.516;2023-05-20T10:00:12;19.38;66.59
68378;DHT22;55322;48.146;11.516;2023-05-20T10:02:49;19.81;66.04
68378;DHT22;55322;48.146;11.516;2023-05-20T10:05:28;19.38;65.54
68378;DHT22;55322;48.146;11.516;2023-05-20T10:13:48;18.58;69.49
68378;DHT22;55322;48.146;11.516;2023-05-20T10:19:30;18.29;67.84
68378;DHT22;55322;48.146;11.516;2023-05-20T10:22:09;18.38;64.85
68378;DHT22;55322;48.146;11.516;2023-05-20T10:24:39;18.26;68.39
68378;DHT22;55322;48.146;11.516;2023-05-20T10:27:16;18.07;69.70
68378;DHT22;55322;48.146;11.516;2023-05-20T10:29:53;18.29;67.94
68378;DHT22;55322;48.146;11.516;2023-05-20T10:32:30;18.53;65.79
68378;DHT22;55322;48.146;11.516;2023-05-20T10:35:08;19.01;66.61
68378;DHT22;55322;48.146;11.516;2023-05-20T10:37:45;20.00;63.05
68378;DHT22;55322;48.146;11.516;2023-05-20T10:40:13;20.33;65.11
68378;DHT22;55322;48.146;11.516;2023-05-20T10:42:39;20.61;59.95
68378;DHT22;55322;48.146;11.516;2023-05-20T10:45:06;20.09;64.47
68378;DHT22;55322;48.146;11.516;2023-05-20T10:47:32;20.43;64.93
68378;DHT22;55322;48.146;11.516;2023-05-20T10:49:58;20.98;62.46
68378;DHT22;55322;48.146;11.516;2023-05-20T10:52:24;20.86;60.80
68378;DHT22;55322;48.146;11.516;2023-05-20T10:57:17;20.64;61.77
68378;DHT22;55322;48.146;11.516;2023-05-20T10:59:43;20.75;62.68
68378;DHT22;55322;48.146;11.516;2023-05-20T11:02:09;20.85;60.18
68378;DHT22;55322;48.146;11.516;2023-05-20T11:04:37;21.06;57.35
68378;DHT22;55322;48.146;11.516;2023-05-20T11:07:03;21.71;58.44
68378;DHT22;55322;48.146;11.516;2023-05-20T11:09:28;21.76;60.72
68378;DHT22;55322;48.146;11.516;2023-05-20T11:11:56;22.38;59.27
68378;DHT22;55322;48.146;11.516;2023-05-20T11:14:21;22.20;59.69
68378;DHT22;55322;48.146;11.516;2023-05-20T11:16:51;22.11;59.30
68378;DHT22;55322;48.146;11.516;2023-05-20T11:19:17;22.07;53.72
68378;DHT22;55322;48.146;11.516;2023-05-20T11:21:46;22.35;52.85
68378;DHT22;55322;48.146;11.516;2023-05-20T11:24:12;22.76;53.14
68378;DHT22;55322;48.146;11.516;2023-05-20T11:26:38;22.85;55.72
68378;DHT22;55322;48.146;11.516;2023-05-20T11:29:03;22.86;54.95
68378;DHT22;55322;48.146;11.516;2023-05-20T11:31:30;22.31;57.87
68378;DHT22;55322;48.146;11.516;2023-05-20T11:33:58;21.89;57.28
68378;DHT22;55322;48.146;11.516;2023-05-20T11:36:25;22.18;55.25
68378;DHT22;55322;48.146;11.516;2023-05-20T11:38:53;22.32;54.60
68378;DHT22;55322;48.146;11.516;2023-05-20T11:41:25;22.14;56.95
68378;DHT22;55322;48.146;11.516;2023-05-20T11:44:00;22.00;56.68
68378;DHT22;55322;48.146;11.516;2023-05-20T11:46:26;22.40;53.56
68378;DHT22;55322;48.146;11.516;2023-05-20T11:48:53;22.78;55.44
68378;DHT22;55322;48.146;11.516;2023-05-20T11:51:26;22.35;57.99
68378;DHT22;55322;48.146;11.516;2023-05-20T11:53:51;22.73;56.91
68378;DHT22;55322;48.146;11.516;2023-05-20T11:56:17;22.72;54.60
68378;DHT22;55322;48.146;11.516;2023-05-20T11:58:43;22.84;53.96
68378;DHT22;55322;48.146;11.516;2023-05-20T12:01:08;22.49;53.55
68378;DHT22;55322;48.146;11.516;2023-05-20T12:03:34;22.22;57.71
68378;DHT22;55322;48.146;11.516;2023-05-20T12:06:00;21.96;57.76
68378;DHT22;55322;48.146;11.516;2023-05-20T12:08:26;22.15;58.04
68378;DHT22;55322;48.146;11.516;2023-05-20T12:10:51;22.18;56.53
68378;DHT22;55322;48.146;11.516;2023-05-20T12:13:16;22.37;56.74
68378;DHT22;55322;48.146;11.516;2023-05-20T12:15:43;22.58;52.93
68378;DHT22;55322;48.146;11.516;2023-05-20T12:18:08;22.38;56.27
68378;DHT22;55322;48.146;11.516;2023-05-20T12:20:34;22.56;53.38
68378;DHT22;55322;48.146;11.516;2023-05-20T12:23:00;22.96;53.21
68378;DHT22;55322;48.146;11.516;2023-05-20T12:25:26;22.45;53.73
68378;DHT22;55322;48.146;11.516;2023-05-20T12:27:51;22.21;53.84
68378;DHT22;55322;48.146;11.516;2023-05-20T12:30:18;22.21;58.06
68378;DHT22;55322;48.146;11.516;2023-05-20T12:32:45;22.10;59.15
68378;DHT22;55322;48.146;11.516;2023-05-20T12:35:11;22.13;56.57
68378;DHT22;55322;48.146;11.516;2023-05-20T12:37:37;22.13;53.90
68378;DHT22;55322;48.146;11.516;2023-05-20T12:40:03;22.11;58.76
68378;DHT22;55322;48.146;11.516;2023-05-20T12:42:35;22.42;53.04
68378;DHT22;55322;48.146;11.516;2023-05-20T12:45:01;22.79;54.24
68378;DHT22;55322;48.146;11.516;2023-05-20T12:47:26;22.28;57.13
68378;DHT22;55322;48.146;11.516;2023-05-20T12:49:52;22.04;57.79
68378;DHT22;55322;48.146;11.516;2023-05-20T12:52:17;22.22;56.42
68378;DHT22;55322;48.146;11.516;2023-05-20T12:54:42;22.13;59.42
68378;DHT22;55322;48.146;11.516;2023-05-20T12:57:07;21.93;60.53
68378;DHT22;55322;48.146;11.516;2023-05-20T12:59:33;21.87;57.17
68378;DHT22;55322;48.146;11.516;2023-05-20T13:01:58;21.87;57.64
68378;DHT22;55322;48.146;11.516;2023-05-20T13:04:23;21.89;61.29
68378;DHT22;55322;48.146;11.516;2023-05-20T13:06:49;22.41;48.72
68378;DHT22;55322;48.146;11.516;2023-05-20T13:09:14;22.75;48.98
68378;DHT22;55322;48.146;11.516;2023-05-20T13:11:40;23.02;50.92
68378;DHT22;55322;48.146;11.516;2023-05-20T13:14:05;23.33;49.59
68378;DHT22;55322;48.146;11.516;2023-05-20T13:16:30;23.33;46.85
68378;DHT22;55322;48.146;11.516;2023-05-20T13:18:56;23.15;49.27
68378;DHT22;55322;48.146;11.516;2023-05-20T13:21:21;23.10;49.81
68378;DHT22;55322;48.146;11.516;2023-05-20T13:23:47;22.98;50.36
68378;DHT22;55322;48.146;11.516;2023-05-20T13:26:12;23.16;51.12
68378;DHT22;55322;48.146;11.516;2023-05-20T13:28:37;22.85;55.09
68378;DHT22;55322;48.146;11.516;2023-05-20T13:31:04;22.54;56.46
68378;DHT22;55322;48.146;11.516;2023-05-20T13:33:30;22.40;55.67
68378;DHT22;55322;48.146;11.516;2023-05-20T13:35:55;22.13;57.63
68378;DHT22;55322;48.146;11.516;2023-05-20T13:38:21;21.91;58.54
68378;DHT22;55322;48.146;11.516;2023-05-20T13:40:46;21.80;56.01
68378;DHT22;55322;48.146;11.516;2023-05-20T13:43:13;21.66;57.02
68378;DHT22;55322;48.146;11.516;2023-05-20T13:45:38;21.73;57.21
68378;DHT22;55322;48.146;11.516;2023-05-20T13:48:03;21.87;55.18
68378;DHT22;55322;48.146;11.516;2023-05-20T13:50:29;22.05;52.97
68378;DHT22;55322;48.146;11.516;2023-05-20T13:52:54;22.14;52.02
68378;DHT22;55322;48.146;11.516;2023-05-20T13:55:20;22.18;51.68
68378;DHT22;55322;48.146;11.516;2023-05-20T13:57:46;21.77;58.04
68378;DHT22;55322;48.146;11.516;2023-05-20T14:00:12;21.89;55.72
68378;DHT22;55322;48.146;11.516;2023-05-20T14:02:37;21.77;56.45
68378;DHT22;55322;48.146;11.516;2023-05-20T14:05:04;21.51;58.77
68378;DHT22;55322;48.146;11.516;2023-05-20T14:07:29;21.33;60.00
68378;DHT22;55322;48.146;11.516;2023-05-20T14:09:54;21.53;54.04
68378;DHT22;55322;48.146;11.516;2023-05-20T14:12:20;21.64;53.65
68378;DHT22;55322;48.146;11.516;2023-05-20T14:14:47;21.61;54.76
68378;DHT22;55322;48.146;11.516;2023-05-20T14:17:12;21.57;56.21
68378;DHT22;55322;48.146;11.516;2023-05-20T14:19:37;21.40;57.23
68378;DHT22;55322;48.146;11.516;2023-05-20T14:22:03;21.33;58.07
68378;DHT22;55322;48.146;11.516;2023-05-20T14:24:28;21.15;59.78
68378;DHT22;55322;48.146;11.516;2023-05-20T14:26:53;21.06;60.47
68378;DHT22;55322;48.146;11.516;2023-05-20T14:29:19;20.89;61.22
68378;DHT22;55322;48.146;11.516;2023-05-20T14:31:44;20.81;62.13
68378;DHT22;55322;48.146;11.516;2023-05-20T14:34:10;20.98;58.96
68378;DHT22;55322;48.146;11.516;2023-05-20T14:36:36;20.82;64.85
68378;DHT22;55322;48.146;11.516;2023-05-20T14:39:01;20.55;65.60
68378;DHT22;55322;48.146;11.516;2023-05-20T14:41:27;20.63;62.05
68378;DHT22;55322;48.146;11.516;2023-05-20T14:43:52;20.56;63.31
68378;DHT22;55322;48.146;11.516;2023-05-20T14:46:18;20.67;61.82
68378;DHT22;55322;48.146;11.516;2023-05-20T14:48:43;20.67;63.87
68378;DHT22;55322;48.146;11.516;2023-05-20T14:51:08;20.56;64.47
68378;DHT22;55322;48.146;11.516;2023-05-20T14:53:34;20.71;60.98
68378;DHT22;55322;48.146;11.516;2023-05-20T14:55:59;20.56;65.16
68378;DHT22;55322;48.146;11.516;2023-05-20T14:58:24;20.63;64.49
68378;DHT22;55322;48.146;11.516;2023-05-20T15:00:51;20.59;63.09
68378;DHT22;55322;48.146;11.516;2023-05-20T15:03:17;20.69;63.32
68378;DHT22;55322;48.146;11.516;2023-05-20T15:05:42;20.61;62.66
68378;DHT22;55322;48.146;11.516;2023-05-20T15:08:07;20.64;63.78
68378;DHT22;55322;48.146;11.516;2023-05-20T15:10:33;20.49;65.36
68378;DHT22;55322;48.146;11.516;2023-05-20T15:12:58;20.41;66.41
68378;DHT22;55322;48.146;11.516;2023-05-20T15:15:24;20.51;63.56
68378;DHT22;55322;48.146;11.516;2023-05-20T15:17:49;20.55;64.37
68378;DHT22;55322;48.146;11.516;2023-05-20T15:20:14;20.71;62.18